»·PEaware :: N196EC KBUR-KLAS

N196EC :: KBUR-KLAS

FLIGHT INFORMATION

Flight Status: Arrived
Operator: Privately registered:
United States
More flights under this callsign
Pilot: Adrián R. (20842)
Aircraft: BEECH AIRCRAFT DEBONAIR BONANZA
(BE33)
More flights by this aircraft type
Origin: KBUR Bob Hope-Burbank
United States
Destination: KLAS McCarran Intl
United States
More flights between these airports :: More routes between these airports
Route: VNY3 DAG CRESO4
File this flight plan on PilotEdge
Remarks: I5 RATING ATTEMPT
Altitude:
(Current/Filed)
11,000ft
Speed:
(Current/Filed)
160kts
Departed: 05-Nov-18 08:45 AM
Arrived: 05-Nov-18 10:11 AM
Distance/Time
Traveled:
193nm/1:25
Distance/Time
To Go:
Arrived

Flight Plot

Page will automatically refresh every two minutes.

Flight plan parsing failed; only flown route is shown


Map Options




Map Legend


Flown Route
Filed Route
Departure Airport
Arrival Airport
Navaid (VOR, NDB)
Fix

Horizontal Profiles

Position Reports

Time Latitude Longitude Heading Altitude Ground
Speed
05-Nov-18 08:14 34.200027 -118.358686 263 779ft 0kts
05-Nov-18 08:14 34.200027 -118.358686 263 779ft 0kts
05-Nov-18 08:15 34.200027 -118.358686 263 779ft 0kts
05-Nov-18 08:17 34.200027 -118.358686 263 779ft 0kts
05-Nov-18 08:18 34.200027 -118.358686 263 779ft 0kts
05-Nov-18 08:19 34.200027 -118.358686 263 779ft 0kts
05-Nov-18 08:20 34.200027 -118.358686 263 779ft 0kts
05-Nov-18 08:21 34.200027 -118.358686 263 779ft 0kts
05-Nov-18 08:22 34.200027 -118.358686 263 779ft 0kts
05-Nov-18 08:23 34.200027 -118.358686 263 779ft 0kts
05-Nov-18 08:24 34.200027 -118.358686 263 779ft 0kts
05-Nov-18 08:25 34.200027 -118.358686 263 779ft 0kts
05-Nov-18 08:26 34.200027 -118.358686 263 779ft 0kts
05-Nov-18 08:27 34.200027 -118.358686 263 779ft 0kts
05-Nov-18 08:28 34.200027 -118.358686 263 779ft 0kts
05-Nov-18 08:29 34.200027 -118.358686 263 779ft 0kts
05-Nov-18 08:30 34.200027 -118.358686 263 779ft 0kts
05-Nov-18 08:31 34.200027 -118.358686 263 779ft 0kts
05-Nov-18 08:32 34.200027 -118.358686 263 779ft 0kts
05-Nov-18 08:33 34.200027 -118.358686 263 779ft 0kts
05-Nov-18 08:34 34.200027 -118.358686 263 779ft 0kts
05-Nov-18 08:35 34.200027 -118.358686 263 779ft 0kts
05-Nov-18 08:36 34.200027 -118.358686 263 779ft 0kts
05-Nov-18 08:37 34.200027 -118.358686 263 779ft 0kts
05-Nov-18 08:38 34.200027 -118.358686 263 779ft 0kts
05-Nov-18 08:39 34.200027 -118.358686 263 779ft 0kts
05-Nov-18 08:40 34.200027 -118.358686 263 779ft 0kts
05-Nov-18 08:41 34.200027 -118.358686 263 779ft 0kts
05-Nov-18 08:42 34.199615 -118.358305 67 779ft 10kts
05-Nov-18 08:43 34.204352 -118.359409 347 779ft 21kts
05-Nov-18 08:44 34.210111 -118.361000 346 779ft 23kts
05-Nov-18 08:45 34.212013 -118.361403 59 779ft 0kts
05-Nov-18 08:46 34.212013 -118.361403 59 779ft 0kts
05-Nov-18 08:47 34.212013 -118.361403 59 779ft 0kts
05-Nov-18 08:48 34.207065 -118.359008 167 797ft 88kts
05-Nov-18 08:49 34.184036 -118.367279 212 2177ft 84kts
05-Nov-18 08:50 34.162924 -118.391832 225 3267ft 115kts
05-Nov-18 08:51 34.139136 -118.421041 231 3998ft 145kts
05-Nov-18 08:52 34.150930 -118.461018 348 3983ft 148kts
05-Nov-18 08:53 34.188666 -118.448500 20 4603ft 136kts
05-Nov-18 08:54 34.222773 -118.432388 20 5455ft 129kts
05-Nov-18 08:55 34.256869 -118.432416 351 6299ft 123kts
05-Nov-18 08:56 34.290710 -118.438324 351 7155ft 123kts
05-Nov-18 08:57 34.324431 -118.443980 351 8012ft 122kts
05-Nov-18 08:58 34.357734 -118.447733 13 8829ft 123kts
05-Nov-18 08:59 34.380925 -118.415796 44 9608ft 126kts
05-Nov-18 09:00 34.402836 -118.383226 42 10315ft 124kts
05-Nov-18 09:01 34.424850 -118.351761 40 10958ft 125kts
05-Nov-18 09:02 34.449804 -118.316901 42 10996ft 148kts
05-Nov-18 09:03 34.477689 -118.277906 42 10969ft 156kts
05-Nov-18 09:04 34.505936 -118.238473 42 10972ft 157kts
05-Nov-18 09:05 34.534218 -118.199109 42 10975ft 157kts
05-Nov-18 09:06 34.563003 -118.159071 42 10977ft 157kts
05-Nov-18 09:07 34.591664 -118.119189 42 10979ft 157kts
05-Nov-18 09:08 34.620378 -118.079193 42 10980ft 157kts
05-Nov-18 09:09 34.636407 -118.029955 78 10978ft 168kts
05-Nov-18 09:10 34.641547 -117.973794 76 10973ft 167kts
05-Nov-18 09:11 34.647490 -117.917861 76 10983ft 167kts
05-Nov-18 09:12 34.653618 -117.861475 76 10981ft 170kts
05-Nov-18 09:13 34.659792 -117.804361 76 10979ft 171kts
05-Nov-18 09:14 34.668060 -117.748848 66 10983ft 162kts
05-Nov-18 09:15 34.681331 -117.696838 65 10987ft 160kts
05-Nov-18 09:16 34.694516 -117.645450 65 10992ft 159kts
05-Nov-18 09:17 34.707661 -117.594117 65 10998ft 159kts
05-Nov-18 09:18 34.720804 -117.542696 65 10999ft 159kts
05-Nov-18 09:19 34.733879 -117.491435 65 10997ft 159kts
05-Nov-18 09:20 34.746972 -117.439992 65 10997ft 159kts
05-Nov-18 09:21 34.760004 -117.388691 65 10997ft 159kts
05-Nov-18 09:22 34.772900 -117.337829 66 10997ft 159kts
05-Nov-18 09:23 34.785929 -117.286592 66 10995ft 165kts
05-Nov-18 09:24 34.799578 -117.232369 66 10989ft 169kts
05-Nov-18 09:25 34.813280 -117.177898 66 10983ft 169kts
05-Nov-18 09:26 34.826997 -117.123315 66 10975ft 168kts
05-Nov-18 09:27 34.840696 -117.068827 66 10969ft 169kts
05-Nov-18 09:28 34.854446 -117.013991 67 10977ft 169kts
05-Nov-18 09:29 34.868281 -116.958682 67 10981ft 171kts
05-Nov-18 09:30 34.882190 -116.902943 68 10981ft 173kts
05-Nov-18 09:31 34.895649 -116.848746 68 10981ft 175kts
05-Nov-18 09:32 34.909590 -116.792460 68 10981ft 176kts
05-Nov-18 09:33 34.923738 -116.735335 68 10981ft 176kts
05-Nov-18 09:34 34.937844 -116.678259 68 10981ft 176kts
05-Nov-18 09:35 34.951952 -116.621047 68 10982ft 176kts
05-Nov-18 09:36 34.968353 -116.565338 56 10988ft 173kts
05-Nov-18 09:37 34.991162 -116.513759 55 10994ft 173kts
05-Nov-18 09:38 35.014067 -116.462230 55 11003ft 172kts
05-Nov-18 09:39 35.036815 -116.410964 54 11014ft 171kts
05-Nov-18 09:40 35.059511 -116.359771 54 11019ft 171kts
05-Nov-18 09:41 35.081864 -116.309267 55 11015ft 171kts
05-Nov-18 09:42 35.103956 -116.259266 55 11017ft 171kts
05-Nov-18 09:43 35.125826 -116.209696 55 11018ft 171kts
05-Nov-18 09:44 35.148465 -116.158297 55 11018ft 172kts
05-Nov-18 09:45 35.171120 -116.106787 55 11018ft 172kts
05-Nov-18 09:46 35.193688 -116.055396 55 11018ft 172kts
05-Nov-18 09:47 35.216286 -116.003861 55 11019ft 172kts
05-Nov-18 09:48 35.238882 -115.952252 55 11019ft 172kts
05-Nov-18 09:49 35.261382 -115.900746 55 11019ft 170kts
05-Nov-18 09:50 35.283643 -115.849727 55 11024ft 169kts
05-Nov-18 09:51 35.305666 -115.799205 54 11028ft 168kts
05-Nov-18 09:52 35.334098 -115.755955 39 11031ft 162kts
05-Nov-18 09:53 35.365269 -115.714634 41 11036ft 170kts
05-Nov-18 09:54 35.397525 -115.671460 41 11038ft 173kts
05-Nov-18 09:55 35.430017 -115.628031 41 11038ft 173kts
05-Nov-18 09:56 35.462689 -115.584326 41 11038ft 174kts
05-Nov-18 09:57 35.495743 -115.540153 41 10789ft 187kts
05-Nov-18 09:58 35.532779 -115.490568 43 10067ft 201kts
05-Nov-18 09:59 35.568631 -115.442247 42 10018ft 183kts
05-Nov-18 10:00 35.602950 -115.396168 43 9670ft 188kts
05-Nov-18 10:01 35.638699 -115.349109 43 8997ft 192kts
05-Nov-18 10:02 35.686457 -115.332025 2 8311ft 184kts
05-Nov-18 10:03 35.736951 -115.325686 1 7631ft 181kts
05-Nov-18 10:04 35.787042 -115.320183 1 7028ft 177kts
05-Nov-18 10:05 35.831960 -115.309021 21 7017ft 164kts
05-Nov-18 10:06 35.873229 -115.285586 23 7016ft 163kts
05-Nov-18 10:07 35.916413 -115.260972 24 6168ft 170kts
05-Nov-18 10:08 35.958484 -115.237002 25 5152ft 157kts
05-Nov-18 10:09 35.991948 -115.218038 25 4311ft 119kts
05-Nov-18 10:10 36.022016 -115.200864 26 3579ft 119kts
05-Nov-18 10:11 36.047992 -115.186019 27 2940ft 75kts
05-Nov-18 10:12 36.066649 -115.175352 22 2482ft 76kts
05-Nov-18 10:13 36.084262 -115.165386 25 2146ft 44kts
05-Nov-18 10:14 36.089653 -115.164209 301 2130ft 12kts
05-Nov-18 10:15 36.086208 -115.166538 205 2146ft 19kts
05-Nov-18 10:16 36.085166 -115.168436 95 2156ft 0kts
05-Nov-18 10:17 36.085166 -115.168436 95 2156ft 0kts
05-Nov-18 10:18 36.085166 -115.168436 95 2156ft 0kts
05-Nov-18 10:19 36.085166 -115.168436 95 2156ft 0kts

Navigation Log

Ident Type
Flight plan parsing failed, navigation log unavailable